Time;durP1;ratioP1;P1;durP2;ratioP2;P2;SDS_P1;SDS_P2;PMS_P1;PMS_P2;Temp;Humidity;BMP_temperature;BMP_pressure;BME280_temperature;BME280_humidity;BME280_pressure;Samples;Min_cycle;Max_cycle;Signal;HPM_P1;HPM_P2
2021/06/19 00:00:32;;;;;;;12.05;10.93;;;;;;;;;;5093651;28;20039;-68
2021/06/19 00:02:59;;;;;;;12.30;10.88;;;;;;;;;;5093584;28;20028;-67
2021/06/19 00:05:26;;;;;;;10.88;9.85;;;;;;;;;;5093523;28;20028;-68
2021/06/19 00:07:52;;;;;;;10.90;9.93;;;;;;;;;;5093662;28;20063;-67
2021/06/19 00:10:18;;;;;;;10.75;9.80;;;;;;;;;;5093521;28;20019;-67
2021/06/19 00:12:44;;;;;;;12.43;11.10;;;;;;;;;;5095330;28;20016;-68
2021/06/19 00:15:11;;;;;;;20.95;9.50;;;;;;;;;;5100630;28;20070;-67
2021/06/19 00:17:37;;;;;;;10.40;9.60;;;;;;;;;;5100263;28;20039;-67
2021/06/19 00:20:07;;;;;;;11.05;10.13;;;;;;;;;;5100033;28;20067;-68
2021/06/19 00:22:33;;;;;;;10.68;9.77;;;;;;;;;;5099847;28;20032;-68
2021/06/19 00:24:59;;;;;;;13.05;11.05;;;;;;;;;;5100125;28;20031;-67
2021/06/19 00:27:26;;;;;;;13.35;10.18;;;;;;;;;;5100571;28;20547;-67
2021/06/19 00:29:52;;;;;;;13.65;10.52;;;;;;;;;;5100427;28;20016;-67
2021/06/19 00:32:18;;;;;;;11.93;10.82;;;;;;;;;;5100390;28;20020;-67
2021/06/19 00:34:44;;;;;;;12.18;11.07;;;;;;;;;;5100118;28;20031;-68
2021/06/19 00:37:10;;;;;;;12.50;11.32;;;;;;;;;;5099912;28;20071;-68
2021/06/19 00:39:36;;;;;;;12.00;10.73;;;;;;;;;;5100385;28;20365;-68
2021/06/19 00:42:02;;;;;;;12.38;10.55;;;;;;;;;;5100085;28;20054;-67
2021/06/19 00:44:28;;;;;;;11.25;10.35;;;;;;;;;;5100103;28;20028;-67
2021/06/19 00:46:54;;;;;;;11.93;10.80;;;;;;;;;;5099838;28;20024;-68
2021/06/19 00:49:21;;;;;;;11.90;10.80;;;;;;;;;;5099770;28;20103;-67
2021/06/19 00:51:48;;;;;;;11.95;9.95;;;;;;;;;;5099993;28;20024;-68
2021/06/19 00:54:14;;;;;;;12.50;9.45;;;;;;;;;;5100003;28;20024;-68
2021/06/19 00:56:40;;;;;;;14.73;10.07;;;;;;;;;;5099979;28;20024;-67
2021/06/19 00:59:07;;;;;;;13.18;11.52;;;;;;;;;;5099688;28;20032;-67
2021/06/19 01:01:33;;;;;;;11.70;10.52;;;;;;;;;;5099955;28;20111;-67
2021/06/19 01:04:01;;;;;;;10.88;9.73;;;;;;;;;;5099643;28;20481;-67
2021/06/19 01:06:27;;;;;;;10.73;9.73;;;;;;;;;;5099444;28;20042;-68
2021/06/19 01:08:53;;;;;;;11.15;10.15;;;;;;;;;;5099732;28;20032;-68
2021/06/19 01:11:22;;;;;;;12.50;11.35;;;;;;;;;;5100410;28;20024;-67
2021/06/19 01:13:49;;;;;;;12.27;10.48;;;;;;;;;;5099708;28;20370;-67
2021/06/19 01:16:16;;;;;;;11.43;10.10;;;;;;;;;;5099852;28;20519;-67
2021/06/19 01:18:42;;;;;;;10.63;9.75;;;;;;;;;;5100028;28;20035;-67
2021/06/19 01:21:24;;;;;;;10.77;9.77;;;;;;;;;;5099491;28;20019;-67
2021/06/19 01:23:50;;;;;;;10.88;9.93;;;;;;;;;;5098740;28;20060;-67
2021/06/19 01:26:17;;;;;;;16.27;10.60;;;;;;;;;;5095826;28;20067;-67
2021/06/19 01:28:44;;;;;;;10.48;9.48;;;;;;;;;;5096316;28;20524;-69
2021/06/19 01:31:10;;;;;;;10.15;9.32;;;;;;;;;;5096216;28;20020;-67
2021/06/19 01:33:38;;;;;;;10.80;9.85;;;;;;;;;;5095946;28;20027;-68
2021/06/19 01:36:04;;;;;;;10.93;10.00;;;;;;;;;;5096306;28;20492;-67
2021/06/19 01:38:30;;;;;;;10.43;9.55;;;;;;;;;;5096556;28;20039;-67
2021/06/19 01:40:56;;;;;;;11.75;10.32;;;;;;;;;;5095838;28;20512;-68
2021/06/19 01:43:22;;;;;;;11.30;10.30;;;;;;;;;;5096225;28;20028;-68
2021/06/19 01:45:48;;;;;;;9.80;9.00;;;;;;;;;;5095901;28;20032;-67
2021/06/19 01:48:14;;;;;;;11.02;9.93;;;;;;;;;;5095834;28;20028;-68
2021/06/19 01:50:41;;;;;;;9.45;8.65;;;;;;;;;;5096149;28;20048;-68
2021/06/19 01:53:07;;;;;;;10.43;9.40;;;;;;;;;;5095662;28;20032;-68
2021/06/19 01:55:33;;;;;;;11.23;9.85;;;;;;;;;;5095904;28;20036;-67
2021/06/19 01:57:59;;;;;;;11.15;10.13;;;;;;;;;;5095925;28;20026;-68
2021/06/19 02:00:26;;;;;;;10.70;9.80;;;;;;;;;;5096236;28;20059;-67
2021/06/19 02:02:52;;;;;;;11.10;10.10;;;;;;;;;;5095243;28;20030;-68
2021/06/19 02:05:18;;;;;;;10.23;9.38;;;;;;;;;;5095664;28;20028;-68
2021/06/19 02:07:45;;;;;;;10.65;9.75;;;;;;;;;;5095859;28;20381;-68
2021/06/19 02:10:12;;;;;;;10.68;9.73;;;;;;;;;;5095856;28;20024;-67
2021/06/19 02:12:38;;;;;;;10.32;9.40;;;;;;;;;;5095378;28;20028;-67
2021/06/19 02:15:04;;;;;;;11.60;9.90;;;;;;;;;;5095325;28;20032;-66
2021/06/19 02:17:30;;;;;;;11.60;9.63;;;;;;;;;;5095283;28;20035;-68
2021/06/19 02:19:56;;;;;;;10.05;9.05;;;;;;;;;;5095364;28;20534;-67
2021/06/19 02:22:22;;;;;;;11.25;10.18;;;;;;;;;;5095437;28;20028;-67
2021/06/19 02:24:49;;;;;;;10.60;9.52;;;;;;;;;;5094978;28;20023;-68
2021/06/19 02:27:15;;;;;;;10.00;9.13;;;;;;;;;;5095263;28;20368;-67
2021/06/19 02:29:41;;;;;;;9.80;8.88;;;;;;;;;;5095071;28;20035;-67
2021/06/19 02:32:07;;;;;;;11.82;10.40;;;;;;;;;;5095167;28;20024;-68
2021/06/19 02:34:34;;;;;;;9.65;8.75;;;;;;;;;;5095260;28;20024;-67
2021/06/19 02:37:00;;;;;;;10.48;9.50;;;;;;;;;;5094531;28;20035;-68
2021/06/19 02:39:26;;;;;;;10.23;9.32;;;;;;;;;;5095451;28;20020;-67
2021/06/19 02:41:52;;;;;;;10.57;9.75;;;;;;;;;;5095156;28;20024;-67
2021/06/19 02:44:18;;;;;;;10.05;9.25;;;;;;;;;;5095113;28;20051;-67
2021/06/19 02:46:44;;;;;;;10.85;9.90;;;;;;;;;;5094531;28;20036;-68
2021/06/19 02:49:10;;;;;;;10.77;9.77;;;;;;;;;;5094774;28;20020;-67
2021/06/19 02:51:36;;;;;;;15.00;9.65;;;;;;;;;;5095435;28;20032;-67
2021/06/19 02:54:02;;;;;;;10.02;9.23;;;;;;;;;;5095097;28;20208;-67
2021/06/19 02:56:28;;;;;;;11.43;10.23;;;;;;;;;;5094622;28;20035;-68
2021/06/19 02:58:54;;;;;;;10.43;9.32;;;;;;;;;;5094477;28;20024;-68
2021/06/19 03:01:20;;;;;;;9.80;9.05;;;;;;;;;;5094751;28;20074;-68
2021/06/19 03:03:47;;;;;;;13.80;9.25;;;;;;;;;;5094580;28;20024;-68
2021/06/19 03:06:13;;;;;;;11.05;9.80;;;;;;;;;;5094889;28;20039;-68
2021/06/19 03:08:39;;;;;;;11.07;9.93;;;;;;;;;;5094695;28;20512;-67
2021/06/19 03:11:06;;;;;;;10.70;9.63;;;;;;;;;;5094168;28;20024;-67
2021/06/19 03:13:32;;;;;;;10.68;9.65;;;;;;;;;;5094515;28;20031;-68
2021/06/19 03:15:58;;;;;;;11.20;10.07;;;;;;;;;;5094217;28;20063;-68
2021/06/19 03:18:24;;;;;;;10.55;9.65;;;;;;;;;;5094060;28;20036;-68
2021/06/19 03:20:50;;;;;;;13.18;10.07;;;;;;;;;;5093798;28;20016;-69
2021/06/19 03:23:16;;;;;;;12.45;8.85;;;;;;;;;;5094596;28;20461;-67
2021/06/19 03:25:43;;;;;;;36.63;18.08;;;;;;;;;;5094203;28;20031;-67
2021/06/19 03:28:09;;;;;;;53.30;25.45;;;;;;;;;;5094344;28;20157;-68
2021/06/19 03:30:37;;;;;;;54.30;22.13;;;;;;;;;;5094119;28;20031;-68
2021/06/19 03:33:03;;;;;;;43.22;19.58;;;;;;;;;;5093921;28;20536;-68
2021/06/19 03:35:29;;;;;;;41.63;17.20;;;;;;;;;;5094125;28;20476;-68
2021/06/19 03:37:55;;;;;;;25.33;15.75;;;;;;;;;;5094091;28;20359;-68
2021/06/19 03:40:21;;;;;;;29.00;13.75;;;;;;;;;;5093698;28;20461;-68
2021/06/19 03:42:50;;;;;;;29.10;15.43;;;;;;;;;;5093159;28;20098;-68
2021/06/19 03:45:16;;;;;;;18.80;13.23;;;;;;;;;;5093859;28;20020;-68
2021/06/19 03:47:42;;;;;;;26.67;15.23;;;;;;;;;;5093322;28;20497;-68
2021/06/19 03:50:10;;;;;;;22.45;13.60;;;;;;;;;;5093904;28;20098;-70
2021/06/19 03:52:36;;;;;;;22.17;12.15;;;;;;;;;;5093834;28;20078;-68
2021/06/19 03:55:02;;;;;;;16.80;12.55;;;;;;;;;;5093617;28;20077;-68
2021/06/19 03:57:29;;;;;;;23.88;15.63;;;;;;;;;;5093848;28;20111;-68
2021/06/19 03:59:55;;;;;;;21.35;13.25;;;;;;;;;;5093702;28;20370;-68
2021/06/19 04:02:21;;;;;;;17.67;13.32;;;;;;;;;;5093969;28;20024;-67
2021/06/19 04:04:48;;;;;;;19.48;14.10;;;;;;;;;;5093536;28;20036;-68
2021/06/19 04:07:14;;;;;;;16.08;11.55;;;;;;;;;;5094099;28;20040;-68
2021/06/19 04:09:40;;;;;;;15.82;13.15;;;;;;;;;;5093507;28;20070;-68
2021/06/19 04:12:06;;;;;;;21.63;13.20;;;;;;;;;;5093471;28;20490;-68
2021/06/19 04:14:32;;;;;;;16.30;12.52;;;;;;;;;;5093340;28;20413;-68
2021/06/19 04:16:58;;;;;;;17.05;13.05;;;;;;;;;;5093408;28;20031;-68
2021/06/19 04:19:24;;;;;;;14.60;12.95;;;;;;;;;;5093603;28;20120;-68
2021/06/19 04:21:50;;;;;;;31.58;15.15;;;;;;;;;;5093389;28;20020;-68
2021/06/19 04:24:16;;;;;;;17.63;12.75;;;;;;;;;;5093836;28;20024;-68
2021/06/19 04:26:43;;;;;;;14.75;12.43;;;;;;;;;;5093399;28;20032;-68
2021/06/19 04:29:09;;;;;;;17.08;13.73;;;;;;;;;;5093484;28;20032;-68
2021/06/19 04:31:35;;;;;;;12.82;11.70;;;;;;;;;;5094102;28;20051;-68
2021/06/19 04:34:01;;;;;;;18.85;12.20;;;;;;;;;;5093401;28;20024;-68
2021/06/19 04:36:27;;;;;;;14.05;11.52;;;;;;;;;;5093126;28;20493;-68
2021/06/19 04:38:53;;;;;;;12.70;11.57;;;;;;;;;;5093317;28;20028;-67
2021/06/19 04:41:31;;;;;;;21.70;13.82;;;;;;;;;;5093435;28;20111;-67
2021/06/19 04:46:43;;;;;;;12.95;11.65;;;;;;;;;;5092398;28;20047;-71
2021/06/19 04:49:09;;;;;;;12.75;11.40;;;;;;;;;;5092297;28;20032;-69
2021/06/19 04:51:35;;;;;;;12.75;11.45;;;;;;;;;;5093740;28;20054;-70
2021/06/19 04:54:01;;;;;;;14.50;10.98;;;;;;;;;;5093224;28;20024;-70
2021/06/19 04:56:27;;;;;;;14.48;10.68;;;;;;;;;;5093549;28;20064;-67
2021/06/19 04:58:53;;;;;;;12.15;10.95;;;;;;;;;;5093313;28;20020;-69
2021/06/19 05:01:20;;;;;;;13.70;11.57;;;;;;;;;;5108652;28;20107;-69
2021/06/19 05:03:46;;;;;;;12.90;11.00;;;;;;;;;;5118162;28;20074;-72
2021/06/19 05:06:12;;;;;;;21.17;11.43;;;;;;;;;;5117917;28;20085;-73
2021/06/19 05:08:39;;;;;;;15.05;13.55;;;;;;;;;;5101070;28;20031;-72
2021/06/19 05:11:05;;;;;;;23.70;13.00;;;;;;;;;;5096797;28;20081;-72
2021/06/19 05:13:32;;;;;;;15.10;11.07;;;;;;;;;;5097172;28;20026;-73
2021/06/19 05:15:58;;;;;;;16.13;11.10;;;;;;;;;;5097242;28;20035;-73
2021/06/19 05:18:24;;;;;;;14.00;11.75;;;;;;;;;;5096208;28;20020;-73
2021/06/19 05:20:50;;;;;;;12.90;11.70;;;;;;;;;;5096269;28;20045;-72
2021/06/19 05:23:16;;;;;;;15.52;11.80;;;;;;;;;;5096860;28;20016;-73
2021/06/19 05:25:42;;;;;;;15.20;11.55;;;;;;;;;;5096496;28;20103;-73
2021/06/19 05:28:08;;;;;;;12.27;10.98;;;;;;;;;;5095088;28;20462;-74
2021/06/19 05:30:34;;;;;;;12.95;11.65;;;;;;;;;;5096807;28;20028;-73
2021/06/19 05:33:00;;;;;;;12.90;11.10;;;;;;;;;;5096342;28;20020;-72
2021/06/19 05:35:26;;;;;;;13.27;11.48;;;;;;;;;;5096607;28;20094;-72
2021/06/19 05:37:52;;;;;;;13.93;12.48;;;;;;;;;;5095625;28;20389;-74
2021/06/19 05:40:18;;;;;;;12.15;11.15;;;;;;;;;;5096216;28;20020;-72
2021/06/19 05:42:45;;;;;;;24.10;12.85;;;;;;;;;;5096298;28;20028;-72
2021/06/19 05:45:11;;;;;;;19.38;13.05;;;;;;;;;;5097263;28;20030;-73
2021/06/19 05:47:37;;;;;;;12.82;11.45;;;;;;;;;;5095439;28;20044;-70
2021/06/19 05:50:04;;;;;;;19.40;11.93;;;;;;;;;;5096304;28;20130;-69
2021/06/19 05:52:30;;;;;;;12.85;11.70;;;;;;;;;;5096726;28;20107;-70
2021/06/19 05:54:56;;;;;;;14.55;10.07;;;;;;;;;;5095972;28;20024;-71
2021/06/19 05:57:22;;;;;;;11.77;10.55;;;;;;;;;;5095335;28;20030;-71
2021/06/19 05:59:48;;;;;;;13.38;10.32;;;;;;;;;;5096395;28;20354;-70
2021/06/19 06:02:14;;;;;;;11.95;10.85;;;;;;;;;;5096197;28;20065;-71
2021/06/19 06:04:42;;;;;;;11.45;10.57;;;;;;;;;;5096286;28;20103;-70
2021/06/19 06:07:08;;;;;;;12.63;11.10;;;;;;;;;;5096792;28;20502;-71
2021/06/19 06:09:34;;;;;;;10.93;9.88;;;;;;;;;;5115803;28;20020;-73
2021/06/19 06:12:00;;;;;;;11.68;10.35;;;;;;;;;;5115630;28;20024;-70
2021/06/19 06:14:26;;;;;;;11.80;10.73;;;;;;;;;;5116350;28;20030;-71
2021/06/19 06:16:52;;;;;;;11.80;10.60;;;;;;;;;;5115082;28;20735;-70
2021/06/19 06:19:19;;;;;;;11.65;10.50;;;;;;;;;;5115572;28;20023;-70
2021/06/19 06:21:45;;;;;;;16.08;10.35;;;;;;;;;;5114922;28;20498;-71
2021/06/19 06:24:11;;;;;;;11.18;10.18;;;;;;;;;;5114483;28;20024;-70
2021/06/19 06:26:38;;;;;;;10.98;9.95;;;;;;;;;;5116454;28;20039;-70
2021/06/19 06:29:04;;;;;;;13.88;9.93;;;;;;;;;;5110467;28;20100;-71
2021/06/19 06:31:30;;;;;;;10.93;10.02;;;;;;;;;;5107079;28;20016;-69
2021/06/19 06:33:56;;;;;;;10.73;9.65;;;;;;;;;;5117079;28;20026;-70
2021/06/19 06:36:22;;;;;;;11.32;9.63;;;;;;;;;;5115001;28;20036;-70
2021/06/19 06:38:48;;;;;;;13.63;9.63;;;;;;;;;;5116815;28;20110;-70
2021/06/19 06:41:14;;;;;;;9.90;9.00;;;;;;;;;;5115675;28;20091;-69
2021/06/19 06:43:40;;;;;;;9.65;8.85;;;;;;;;;;5116884;28;20027;-68
2021/06/19 06:46:06;;;;;;;10.13;9.13;;;;;;;;;;5116966;28;20027;-69
2021/06/19 06:48:32;;;;;;;10.52;9.63;;;;;;;;;;5117244;28;20143;-69
2021/06/19 06:50:58;;;;;;;15.32;9.05;;;;;;;;;;5115497;28;20051;-70
2021/06/19 06:53:24;;;;;;;9.93;9.13;;;;;;;;;;5114397;28;20499;-69
2021/06/19 06:55:51;;;;;;;11.07;9.23;;;;;;;;;;5114796;28;20122;-70
2021/06/19 06:58:17;;;;;;;10.27;9.38;;;;;;;;;;5115197;28;20020;-69
2021/06/19 07:00:43;;;;;;;10.45;9.55;;;;;;;;;;5117183;28;20023;-70
2021/06/19 07:03:09;;;;;;;11.40;8.85;;;;;;;;;;5114292;28;20020;-69
2021/06/19 07:05:35;;;;;;;16.90;9.50;;;;;;;;;;5114928;28;20580;-70
2021/06/19 07:08:01;;;;;;;15.02;9.60;;;;;;;;;;5114928;28;20409;-70
2021/06/19 07:10:27;;;;;;;9.35;8.55;;;;;;;;;;5115196;28;20020;-68
2021/06/19 07:12:53;;;;;;;12.80;8.98;;;;;;;;;;5114750;28;20031;-69
2021/06/19 07:15:19;;;;;;;10.77;9.32;;;;;;;;;;5116087;28;20107;-69
2021/06/19 07:17:47;;;;;;;17.70;9.55;;;;;;;;;;5116597;28;20372;-69
2021/06/19 07:20:14;;;;;;;8.98;8.07;;;;;;;;;;5115533;28;20059;-68
2021/06/19 07:22:40;;;;;;;9.30;8.55;;;;;;;;;;5114944;28;20030;-68
2021/06/19 07:25:07;;;;;;;10.20;9.20;;;;;;;;;;5104595;28;20369;-70
2021/06/19 07:27:33;;;;;;;9.32;8.40;;;;;;;;;;5115763;28;20036;-69
2021/06/19 07:29:59;;;;;;;44.35;9.38;;;;;;;;;;5114779;28;20031;-68
2021/06/19 07:32:25;;;;;;;9.27;8.30;;;;;;;;;;5115123;28;20030;-68
2021/06/19 07:34:51;;;;;;;9.80;8.93;;;;;;;;;;5113616;28;20373;-69
2021/06/19 07:37:17;;;;;;;9.75;8.80;;;;;;;;;;5114113;28;20081;-69
2021/06/19 07:39:44;;;;;;;14.05;8.75;;;;;;;;;;5113679;28;20053;-68
2021/06/19 07:42:10;;;;;;;9.55;8.75;;;;;;;;;;5114721;28;20111;-68
2021/06/19 07:44:36;;;;;;;9.25;8.55;;;;;;;;;;5116128;28;20024;-68
2021/06/19 07:47:02;;;;;;;8.32;7.63;;;;;;;;;;5116013;28;20035;-68
2021/06/19 07:49:28;;;;;;;9.02;8.20;;;;;;;;;;5115240;28;20075;-69
2021/06/19 07:51:54;;;;;;;9.32;8.43;;;;;;;;;;5113478;28;20032;-72
2021/06/19 07:54:20;;;;;;;12.25;8.40;;;;;;;;;;5113575;28;20049;-70
2021/06/19 07:56:47;;;;;;;9.27;8.45;;;;;;;;;;5113522;28;20080;-72
2021/06/19 07:59:14;;;;;;;9.60;8.70;;;;;;;;;;5114058;28;20024;-69
2021/06/19 08:01:41;;;;;;;8.95;8.15;;;;;;;;;;5101586;28;20367;-72
2021/06/19 08:04:07;;;;;;;14.02;9.23;;;;;;;;;;5100741;28;20027;-70
2021/06/19 08:06:33;;;;;;;10.57;8.30;;;;;;;;;;5103340;28;20069;-70
2021/06/19 08:08:59;;;;;;;9.35;8.30;;;;;;;;;;5101623;28;20086;-70
2021/06/19 08:11:26;;;;;;;8.43;7.70;;;;;;;;;;5101317;28;20477;-70
2021/06/19 08:13:53;;;;;;;9.55;8.05;;;;;;;;;;5103404;28;20045;-70
2021/06/19 08:16:19;;;;;;;10.63;7.65;;;;;;;;;;5100764;28;20468;-68
2021/06/19 08:18:46;;;;;;;14.07;9.73;;;;;;;;;;5092694;28;20515;-70
2021/06/19 08:21:12;;;;;;;19.88;9.10;;;;;;;;;;5093116;28;20038;-70
2021/06/19 08:23:38;;;;;;;10.15;7.55;;;;;;;;;;5092769;28;20492;-71
2021/06/19 08:26:04;;;;;;;9.48;8.55;;;;;;;;;;5094628;28;20033;-70
2021/06/19 08:28:33;;;;;;;9.13;8.30;;;;;;;;;;5094264;28;20359;-71
2021/06/19 08:30:59;;;;;;;8.35;7.70;;;;;;;;;;5093918;28;20468;-72
2021/06/19 08:33:25;;;;;;;8.65;7.78;;;;;;;;;;5094600;28;20024;-71
2021/06/19 08:35:51;;;;;;;11.05;8.48;;;;;;;;;;5096784;28;20069;-71
2021/06/19 08:38:17;;;;;;;8.68;6.47;;;;;;;;;;5097167;28;20354;-72
2021/06/19 08:40:43;;;;;;;8.00;7.22;;;;;;;;;;5097263;28;20039;-73
2021/06/19 08:43:09;;;;;;;8.50;7.57;;;;;;;;;;5099509;28;20187;-72
2021/06/19 08:45:35;;;;;;;8.50;7.70;;;;;;;;;;5098783;28;20347;-70
2021/06/19 08:48:02;;;;;;;8.68;7.88;;;;;;;;;;5098627;28;20036;-71
2021/06/19 08:50:28;;;;;;;15.70;10.50;;;;;;;;;;5106510;28;20055;-72
2021/06/19 08:52:54;;;;;;;13.43;7.82;;;;;;;;;;5107735;28;20077;-72
2021/06/19 08:55:20;;;;;;;11.10;8.30;;;;;;;;;;5104912;28;20020;-71
2021/06/19 08:57:46;;;;;;;11.18;8.38;;;;;;;;;;5106979;28;20465;-72
2021/06/19 09:00:13;;;;;;;7.68;6.95;;;;;;;;;;5106413;28;20060;-71
2021/06/19 09:02:39;;;;;;;7.88;7.00;;;;;;;;;;5107956;28;20041;-71
2021/06/19 09:05:07;;;;;;;8.65;7.95;;;;;;;;;;5106754;28;20084;-72
2021/06/19 09:07:34;;;;;;;9.07;6.95;;;;;;;;;;5106934;28;20031;-72
2021/06/19 09:10:15;;;;;;;11.95;8.32;;;;;;;;;;5103900;28;20027;-72
2021/06/19 09:12:41;;;;;;;8.57;7.70;;;;;;;;;;5107022;28;20381;-71
2021/06/19 09:15:22;;;;;;;12.77;8.70;;;;;;;;;;5104532;28;20022;-73
2021/06/19 09:18:08;;;;;;;9.00;7.78;;;;;;;;;;5105008;28;20025;-71
2021/06/19 09:20:38;;;;;;;10.55;7.47;;;;;;;;;;5101832;28;20059;-72
2021/06/19 09:23:05;;;;;;;8.77;7.75;;;;;;;;;;5113489;28;20110;-71
2021/06/19 09:25:31;;;;;;;8.27;7.28;;;;;;;;;;5116929;28;20409;-71
2021/06/19 09:27:57;;;;;;;7.63;6.93;;;;;;;;;;5116580;28;20039;-71
2021/06/19 09:30:23;;;;;;;7.93;7.13;;;;;;;;;;5115758;28;20034;-71
2021/06/19 09:32:51;;;;;;;9.02;8.23;;;;;;;;;;5117117;28;20031;-70
2021/06/19 09:35:25;;;;;;;10.18;7.47;;;;;;;;;;5118511;28;20035;-71
2021/06/19 09:37:52;;;;;;;9.75;7.40;;;;;;;;;;5116874;28;20118;-71
2021/06/19 09:40:19;;;;;;;8.00;7.30;;;;;;;;;;5116868;28;20027;-72
2021/06/19 09:42:46;;;;;;;15.65;8.02;;;;;;;;;;5116161;28;20019;-72
2021/06/19 09:45:20;;;;;;;10.98;6.70;;;;;;;;;;5116391;28;20019;-70
2021/06/19 09:47:46;;;;;;;8.57;7.28;;;;;;;;;;5117357;28;20074;-72
2021/06/19 09:50:12;;;;;;;12.93;7.78;;;;;;;;;;5116679;28;20397;-72
2021/06/19 09:52:38;;;;;;;15.77;7.72;;;;;;;;;;5116603;28;20024;-73
2021/06/19 09:55:10;;;;;;;7.70;5.88;;;;;;;;;;5116270;28;20055;-71
2021/06/19 09:57:38;;;;;;;8.05;7.20;;;;;;;;;;5116086;28;20035;-71
2021/06/19 10:00:04;;;;;;;14.48;7.82;;;;;;;;;;5116038;28;20507;-71
2021/06/19 10:02:30;;;;;;;6.85;6.25;;;;;;;;;;5116288;28;20414;-72
2021/06/19 10:04:57;;;;;;;9.10;8.18;;;;;;;;;;5115996;28;20020;-71
2021/06/19 10:07:23;;;;;;;13.27;7.50;;;;;;;;;;5116305;28;20051;-71
2021/06/19 10:09:50;;;;;;;8.43;6.40;;;;;;;;;;5116498;28;20491;-71
2021/06/19 10:12:20;;;;;;;7.97;7.18;;;;;;;;;;5116203;28;20028;-72
2021/06/19 10:14:46;;;;;;;13.05;7.55;;;;;;;;;;5115888;28;20020;-71
2021/06/19 10:17:14;;;;;;;24.15;7.72;;;;;;;;;;5115488;28;20376;-72
2021/06/19 10:19:40;;;;;;;9.05;7.00;;;;;;;;;;5115975;28;20028;-73
2021/06/19 10:22:07;;;;;;;10.27;7.65;;;;;;;;;;5116835;28;20495;-73
2021/06/19 10:24:33;;;;;;;10.40;7.47;;;;;;;;;;5116963;28;20035;-73
2021/06/19 10:26:59;;;;;;;9.93;7.20;;;;;;;;;;5115967;28;20564;-73
2021/06/19 10:29:25;;;;;;;9.98;7.70;;;;;;;;;;5115554;28;20092;-73
2021/06/19 10:31:52;;;;;;;8.48;6.95;;;;;;;;;;5116029;28;20039;-73
2021/06/19 10:34:19;;;;;;;8.57;7.05;;;;;;;;;;5115540;28;20016;-73
2021/06/19 10:36:45;;;;;;;11.45;7.90;;;;;;;;;;5115497;28;20058;-73
2021/06/19 10:39:13;;;;;;;10.27;8.48;;;;;;;;;;5115470;28;20024;-73
2021/06/19 10:41:45;;;;;;;8.43;7.55;;;;;;;;;;5115334;28;20032;-73
2021/06/19 10:44:11;;;;;;;8.95;8.00;;;;;;;;;;5115815;28;20023;-73
2021/06/19 10:46:38;;;;;;;13.80;7.93;;;;;;;;;;5115180;28;20028;-72
2021/06/19 10:49:24;;;;;;;9.68;7.70;;;;;;;;;;5114705;28;20038;-71
2021/06/19 10:51:50;;;;;;;10.30;7.65;;;;;;;;;;5099924;28;20019;-71
2021/06/19 10:54:17;;;;;;;8.02;7.25;;;;;;;;;;5115386;28;20422;-72
2021/06/19 10:56:45;;;;;;;9.75;7.22;;;;;;;;;;5115140;28;20027;-72
2021/06/19 10:59:19;;;;;;;13.55;7.35;;;;;;;;;;5115310;28;20028;-72
2021/06/19 11:01:45;;;;;;;8.77;7.30;;;;;;;;;;5115363;28;20030;-71
2021/06/19 11:04:31;;;;;;;17.77;6.45;;;;;;;;;;5115263;28;20027;-71
2021/06/19 11:06:57;;;;;;;9.25;7.38;;;;;;;;;;5099420;28;20380;-72
2021/06/19 11:09:39;;;;;;;8.68;7.60;;;;;;;;;;5115520;28;20027;-72
2021/06/19 11:12:07;;;;;;;8.65;7.72;;;;;;;;;;5116016;28;20032;-72
2021/06/19 11:14:53;;;;;;;11.88;7.13;;;;;;;;;;5116035;28;20035;-71
2021/06/19 11:17:39;;;;;;;7.50;6.80;;;;;;;;;;5100609;28;20023;-70
2021/06/19 11:20:22;;;;;;;7.53;6.90;;;;;;;;;;5100020;28;20034;-69
2021/06/19 11:23:03;;;;;;;7.45;6.85;;;;;;;;;;5115725;28;20023;-70
2021/06/19 11:25:42;;;;;;;8.45;7.18;;;;;;;;;;5116419;28;20019;-70
2021/06/19 11:28:26;;;;;;;10.63;6.75;;;;;;;;;;5115520;28;20032;-69
2021/06/19 11:30:53;;;;;;;8.73;7.82;;;;;;;;;;5116806;28;20103;-69
2021/06/19 11:33:28;;;;;;;12.02;6.88;;;;;;;;;;5113956;28;20477;-70
2021/06/19 11:36:14;;;;;;;7.47;6.65;;;;;;;;;;5114360;28;20084;-69
2021/06/19 11:38:57;;;;;;;10.98;7.72;;;;;;;;;;5099848;28;20031;-70
2021/06/19 11:41:24;;;;;;;7.47;6.10;;;;;;;;;;5113838;28;20028;-71
2021/06/19 11:43:50;;;;;;;8.23;7.50;;;;;;;;;;5113789;28;20024;-71
2021/06/19 11:46:20;;;;;;;8.52;6.88;;;;;;;;;;5113779;28;20465;-71
2021/06/19 11:48:53;;;;;;;12.02;8.43;;;;;;;;;;5113864;28;20073;-70
2021/06/19 11:51:20;;;;;;;9.13;7.10;;;;;;;;;;5113997;28;20128;-71
2021/06/19 11:53:46;;;;;;;7.15;6.55;;;;;;;;;;5114100;28;20030;-71
2021/06/19 11:56:13;;;;;;;8.73;7.85;;;;;;;;;;5108595;28;20110;-71
2021/06/19 11:58:52;;;;;;;10.80;7.20;;;;;;;;;;5102582;28;20027;-71
2021/06/19 12:01:23;;;;;;;7.80;7.18;;;;;;;;;;5100358;28;20587;-71
2021/06/19 12:03:49;;;;;;;8.27;7.55;;;;;;;;;;5103600;28;20024;-71
2021/06/19 12:06:15;;;;;;;9.85;7.40;;;;;;;;;;5101672;28;20078;-71
2021/06/19 12:08:41;;;;;;;9.85;8.85;;;;;;;;;;5100744;28;20485;-71
2021/06/19 12:11:07;;;;;;;12.65;8.52;;;;;;;;;;5102594;28;20026;-71
2021/06/19 12:13:35;;;;;;;8.10;7.35;;;;;;;;;;5101688;28;20131;-71
2021/06/19 12:16:02;;;;;;;8.68;7.55;;;;;;;;;;5101820;28;20094;-71
2021/06/19 12:18:29;;;;;;;8.52;7.43;;;;;;;;;;5103127;28;20380;-71
2021/06/19 12:20:58;;;;;;;10.85;7.68;;;;;;;;;;5101205;28;20021;-71
2021/06/19 12:23:24;;;;;;;9.70;7.00;;;;;;;;;;5101900;28;20816;-71
2021/06/19 12:25:50;;;;;;;8.50;7.80;;;;;;;;;;5103402;28;20024;-71
2021/06/19 12:28:23;;;;;;;7.65;6.90;;;;;;;;;;5101907;28;20066;-71
2021/06/19 12:30:54;;;;;;;9.93;8.93;;;;;;;;;;5101158;28;20077;-70
2021/06/19 12:33:22;;;;;;;8.43;7.63;;;;;;;;;;5101998;28;20128;-71
2021/06/19 12:35:48;;;;;;;8.20;7.55;;;;;;;;;;5103210;28;20016;-69
2021/06/19 12:38:17;;;;;;;8.68;7.97;;;;;;;;;;5101137;28;20482;-69
2021/06/19 12:40:44;;;;;;;10.45;7.88;;;;;;;;;;5100826;28;20080;-70
2021/06/19 12:43:10;;;;;;;10.15;8.05;;;;;;;;;;5102693;28;20030;-71
2021/06/19 12:45:43;;;;;;;10.90;8.48;;;;;;;;;;5100305;28;20016;-71
2021/06/19 12:48:25;;;;;;;7.95;7.20;;;;;;;;;;5098308;28;20443;-70
2021/06/19 12:50:52;;;;;;;8.63;7.90;;;;;;;;;;5101246;28;20059;-70
2021/06/19 12:53:19;;;;;;;7.70;7.10;;;;;;;;;;5110456;28;20059;-70
2021/06/19 12:55:59;;;;;;;8.60;7.90;;;;;;;;;;5113444;28;20031;-70
2021/06/19 12:58:41;;;;;;;10.20;6.95;;;;;;;;;;5111976;28;20032;-70
2021/06/19 13:01:24;;;;;;;8.32;7.53;;;;;;;;;;5108115;28;20047;-70
2021/06/19 13:03:51;;;;;;;12.13;6.75;;;;;;;;;;5113096;28;20028;-68
2021/06/19 13:06:26;;;;;;;7.65;7.05;;;;;;;;;;5113595;28;20032;-69
2021/06/19 13:08:56;;;;;;;9.38;6.65;;;;;;;;;;5113388;28;20032;-70
2021/06/19 13:11:23;;;;;;;8.05;7.25;;;;;;;;;;5113434;28;20127;-68
2021/06/19 13:13:50;;;;;;;8.77;6.53;;;;;;;;;;5113184;28;20035;-68
2021/06/19 13:16:17;;;;;;;7.55;6.95;;;;;;;;;;5112618;28;20393;-69
2021/06/19 13:19:03;;;;;;;7.15;6.57;;;;;;;;;;5113193;28;20031;-69
2021/06/19 13:21:30;;;;;;;11.48;7.50;;;;;;;;;;5101412;28;20415;-69
2021/06/19 13:23:56;;;;;;;7.82;7.10;;;;;;;;;;5111071;28;20065;-69
2021/06/19 13:26:23;;;;;;;6.90;6.30;;;;;;;;;;5095746;28;20482;-69
2021/06/19 13:28:59;;;;;;;7.63;6.97;;;;;;;;;;5095747;28;20024;-68
2021/06/19 13:31:47;;;;;;;8.45;7.13;;;;;;;;;;5096095;28;20054;-69
2021/06/19 13:34:28;;;;;;;7.43;6.78;;;;;;;;;;5082149;28;20028;-69
2021/06/19 13:37:02;;;;;;;7.95;7.25;;;;;;;;;;5095582;28;20024;-70
2021/06/19 13:39:30;;;;;;;8.20;7.60;;;;;;;;;;5096128;28;20024;-71
2021/06/19 13:42:00;;;;;;;7.40;6.70;;;;;;;;;;5096214;28;20129;-71
2021/06/19 13:44:28;;;;;;;7.35;6.80;;;;;;;;;;5096600;28;20457;-71
2021/06/19 13:46:54;;;;;;;8.05;7.35;;;;;;;;;;5096246;28;20036;-73
2021/06/19 13:49:20;;;;;;;9.70;8.10;;;;;;;;;;5093073;28;20040;-73
2021/06/19 13:51:48;;;;;;;7.55;6.85;;;;;;;;;;5094911;28;20067;-71
2021/06/19 13:54:14;;;;;;;7.97;7.28;;;;;;;;;;5095456;28;20123;-70
2021/06/19 13:56:40;;;;;;;8.43;7.72;;;;;;;;;;5095302;28;20469;-69
2021/06/19 13:59:06;;;;;;;9.70;7.53;;;;;;;;;;5094998;28;20036;-70
2021/06/19 14:01:32;;;;;;;7.80;7.20;;;;;;;;;;5095326;28;20065;-70
2021/06/19 14:03:58;;;;;;;33.90;8.25;;;;;;;;;;5095197;28;20465;-69
2021/06/19 14:06:24;;;;;;;7.78;7.18;;;;;;;;;;5095045;28;20068;-70
2021/06/19 14:08:52;;;;;;;8.52;6.72;;;;;;;;;;5095329;28;20462;-70
2021/06/19 14:11:19;;;;;;;7.47;6.78;;;;;;;;;;5095376;28;20039;-69
2021/06/19 14:13:45;;;;;;;7.57;6.88;;;;;;;;;;5095078;28;20024;-69
2021/06/19 14:16:11;;;;;;;8.10;7.28;;;;;;;;;;5095370;28;20024;-69
2021/06/19 14:18:38;;;;;;;8.07;7.35;;;;;;;;;;5095896;28;20089;-70
2021/06/19 14:21:04;;;;;;;11.27;6.70;;;;;;;;;;5094743;28;20081;-68
2021/06/19 14:23:31;;;;;;;8.75;6.90;;;;;;;;;;5095651;28;20031;-69
2021/06/19 14:25:58;;;;;;;6.95;6.35;;;;;;;;;;5094912;28;20016;-69
2021/06/19 14:28:24;;;;;;;6.78;6.22;;;;;;;;;;5095587;28;20074;-69
2021/06/19 14:30:50;;;;;;;7.88;7.18;;;;;;;;;;5094357;28;20377;-69
2021/06/19 14:33:16;;;;;;;10.75;7.38;;;;;;;;;;5092858;28;20020;-69
2021/06/19 14:35:42;;;;;;;13.25;7.70;;;;;;;;;;5093784;28;20073;-70